sensor_id;sensor_type;location;lat;lon;timestamp;temperature;humidity
14154;DHT22;7157;53.144;7.570;2023-08-06T00:03:25;15.47;105.34
14154;DHT22;7157;53.144;7.570;2023-08-06T00:13:29;15.43;105.37
14154;DHT22;7157;53.144;7.570;2023-08-06T00:23:35;15.37;105.62
14154;DHT22;7157;53.144;7.570;2023-08-06T00:33:39;15.40;105.54
14154;DHT22;7157;53.144;7.570;2023-08-06T00:43:42;15.48;105.53
14154;DHT22;7157;53.144;7.570;2023-08-06T00:53:46;15.55;105.49
14154;DHT22;7157;53.144;7.570;2023-08-06T01:03:49;15.51;105.66
14154;DHT22;7157;53.144;7.570;2023-08-06T01:13:59;15.60;105.45
14154;DHT22;7157;53.144;7.570;2023-08-06T01:24:06;15.57;105.66
14154;DHT22;7157;53.144;7.570;2023-08-06T01:34:11;15.69;105.50
14154;DHT22;7157;53.144;7.570;2023-08-06T01:44:17;15.71;105.56
14154;DHT22;7157;53.144;7.570;2023-08-06T01:54:20;15.70;105.60
14154;DHT22;7157;53.144;7.570;2023-08-06T02:04:25;15.71;105.66
14154;DHT22;7157;53.144;7.570;2023-08-06T02:14:28;15.74;105.42
14154;DHT22;7157;53.144;7.570;2023-08-06T02:24:32;15.77;105.21
14154;DHT22;7157;53.144;7.570;2023-08-06T02:34:35;15.72;105.31
14154;DHT22;7157;53.144;7.570;2023-08-06T02:44:39;15.66;105.26
14154;DHT22;7157;53.144;7.570;2023-08-06T02:54:42;15.63;105.33
14154;DHT22;7157;53.144;7.570;2023-08-06T03:04:46;15.69;105.24
14154;DHT22;7157;53.144;7.570;2023-08-06T03:14:49;15.60;105.42
14154;DHT22;7157;53.144;7.570;2023-08-06T03:24:53;15.62;105.40
14154;DHT22;7157;53.144;7.570;2023-08-06T03:34:56;15.62;105.43
14154;DHT22;7157;53.144;7.570;2023-08-06T03:45:00;15.66;105.31
14154;DHT22;7157;53.144;7.570;2023-08-06T03:55:03;15.59;105.39
14154;DHT22;7157;53.144;7.570;2023-08-06T04:05:08;15.55;105.37
14154;DHT22;7157;53.144;7.570;2023-08-06T04:15:11;15.49;105.40
14154;DHT22;7157;53.144;7.570;2023-08-06T04:25:15;15.42;105.49
14154;DHT22;7157;53.144;7.570;2023-08-06T04:35:22;15.42;105.43
14154;DHT22;7157;53.144;7.570;2023-08-06T04:45:26;15.51;105.14
14154;DHT22;7157;53.144;7.570;2023-08-06T04:55:29;15.52;105.28
14154;DHT22;7157;53.144;7.570;2023-08-06T05:05:33;15.75;104.98
14154;DHT22;7157;53.144;7.570;2023-08-06T05:15:35;15.85;104.92
14154;DHT22;7157;53.144;7.570;2023-08-06T05:25:40;16.08;104.84
14154;DHT22;7157;53.144;7.570;2023-08-06T05:35:42;16.32;104.63
14154;DHT22;7157;53.144;7.570;2023-08-06T05:45:49;16.63;104.15
14154;DHT22;7157;53.144;7.570;2023-08-06T05:55:52;16.59;104.51
14154;DHT22;7157;53.144;7.570;2023-08-06T06:05:56;16.36;104.77
14154;DHT22;7157;53.144;7.570;2023-08-06T06:15:58;16.78;104.02
14154;DHT22;7157;53.144;7.570;2023-08-06T06:26:03;17.05;103.30
14154;DHT22;7157;53.144;7.570;2023-08-06T06:36:05;17.14;103.03
14154;DHT22;7157;53.144;7.570;2023-08-06T06:46:10;17.52;102.27
14154;DHT22;7157;53.144;7.570;2023-08-06T06:56:14;17.84;101.51
14154;DHT22;7157;53.144;7.570;2023-08-06T07:06:18;18.10;100.89
14154;DHT22;7157;53.144;7.570;2023-08-06T07:16:21;18.51;99.46
14154;DHT22;7157;53.144;7.570;2023-08-06T07:26:25;18.69;98.93
14154;DHT22;7157;53.144;7.570;2023-08-06T07:36:28;18.83;97.23
14154;DHT22;7157;53.144;7.570;2023-08-06T07:46:32;18.93;96.95
14154;DHT22;7157;53.144;7.570;2023-08-06T07:56:35;19.30;96.76
14154;DHT22;7157;53.144;7.570;2023-08-06T08:06:40;19.42;94.98
14154;DHT22;7157;53.144;7.570;2023-08-06T08:16:42;19.55;93.79
14154;DHT22;7157;53.144;7.570;2023-08-06T08:26:46;19.92;92.56
14154;DHT22;7157;53.144;7.570;2023-08-06T08:36:49;20.09;90.64
14154;DHT22;7157;53.144;7.570;2023-08-06T08:46:53;20.61;89.50
14154;DHT22;7157;53.144;7.570;2023-08-06T08:56:56;21.06;86.96
14154;DHT22;7157;53.144;7.570;2023-08-06T09:07:00;20.63;87.75
14154;DHT22;7157;53.144;7.570;2023-08-06T09:17:04;22.05;84.42
14154;DHT22;7157;53.144;7.570;2023-08-06T09:27:12;21.19;83.39
14154;DHT22;7157;53.144;7.570;2023-08-06T09:37:15;21.00;81.01
14154;DHT22;7157;53.144;7.570;2023-08-06T09:47:19;21.40;78.24
14154;DHT22;7157;53.144;7.570;2023-08-06T09:57:25;21.77;74.56
14154;DHT22;7157;53.144;7.570;2023-08-06T10:07:30;22.24;70.93
14154;DHT22;7157;53.144;7.570;2023-08-06T10:17:34;22.16;72.03
14154;DHT22;7157;53.144;7.570;2023-08-06T10:27:55;22.34;68.12
14154;DHT22;7157;53.144;7.570;2023-08-06T10:37:59;22.57;66.60
14154;DHT22;7157;53.144;7.570;2023-08-06T10:48:07;22.67;67.60
14154;DHT22;7157;53.144;7.570;2023-08-06T10:58:15;22.87;65.31
14154;DHT22;7157;53.144;7.570;2023-08-06T11:08:25;23.09;64.44
14154;DHT22;7157;53.144;7.570;2023-08-06T11:18:28;22.27;66.53
14154;DHT22;7157;53.144;7.570;2023-08-06T11:28:32;22.11;65.51
14154;DHT22;7157;53.144;7.570;2023-08-06T11:38:36;23.43;62.01
14154;DHT22;7157;53.144;7.570;2023-08-06T11:48:52;27.75;45.86
14154;DHT22;7157;53.144;7.570;2023-08-06T11:58:55;32.47;38.59
14154;DHT22;7157;53.144;7.570;2023-08-06T12:08:59;32.82;33.91
14154;DHT22;7157;53.144;7.570;2023-08-06T12:19:02;30.95;36.99
14154;DHT22;7157;53.144;7.570;2023-08-06T12:29:07;25.44;49.44
14154;DHT22;7157;53.144;7.570;2023-08-06T12:39:10;30.21;37.98
14154;DHT22;7157;53.144;7.570;2023-08-06T12:49:14;32.43;33.61
14154;DHT22;7157;53.144;7.570;2023-08-06T12:59:18;29.04;39.85
14154;DHT22;7157;53.144;7.570;2023-08-06T13:09:22;26.56;48.07
14154;DHT22;7157;53.144;7.570;2023-08-06T13:19:26;24.39;54.17
14154;DHT22;7157;53.144;7.570;2023-08-06T13:29:30;24.40;55.00
14154;DHT22;7157;53.144;7.570;2023-08-06T13:39:33;24.28;55.60
14154;DHT22;7157;53.144;7.570;2023-08-06T13:49:37;23.95;58.27
14154;DHT22;7157;53.144;7.570;2023-08-06T13:59:40;24.21;55.64
14154;DHT22;7157;53.144;7.570;2023-08-06T14:09:46;24.04;58.26
14154;DHT22;7157;53.144;7.570;2023-08-06T14:19:50;24.30;57.43
14154;DHT22;7157;53.144;7.570;2023-08-06T14:29:55;23.95;57.61
14154;DHT22;7157;53.144;7.570;2023-08-06T14:39:57;24.21;58.10
14154;DHT22;7157;53.144;7.570;2023-08-06T14:50:02;23.86;55.57
14154;DHT22;7157;53.144;7.570;2023-08-06T15:00:06;22.76;60.01
14154;DHT22;7157;53.144;7.570;2023-08-06T15:10:14;23.17;57.97
14154;DHT22;7157;53.144;7.570;2023-08-06T15:20:20;23.36;57.39
14154;DHT22;7157;53.144;7.570;2023-08-06T15:30:24;23.14;55.95
14154;DHT22;7157;53.144;7.570;2023-08-06T15:40:27;22.80;56.75
14154;DHT22;7157;53.144;7.570;2023-08-06T15:50:31;22.49;57.36
14154;DHT22;7157;53.144;7.570;2023-08-06T16:00:34;22.35;59.09
14154;DHT22;7157;53.144;7.570;2023-08-06T16:10:39;21.67;60.89
14154;DHT22;7157;53.144;7.570;2023-08-06T16:20:45;21.43;62.24
14154;DHT22;7157;53.144;7.570;2023-08-06T16:30:50;20.94;66.44
14154;DHT22;7157;53.144;7.570;2023-08-06T16:40:55;21.02;65.49
14154;DHT22;7157;53.144;7.570;2023-08-06T16:51:00;21.22;62.76
14154;DHT22;7157;53.144;7.570;2023-08-06T17:01:03;21.38;63.94
14154;DHT22;7157;53.144;7.570;2023-08-06T17:11:09;21.24;65.07
14154;DHT22;7157;53.144;7.570;2023-08-06T17:21:12;21.05;67.20
14154;DHT22;7157;53.144;7.570;2023-08-06T17:31:16;21.07;68.65
14154;DHT22;7157;53.144;7.570;2023-08-06T17:41:19;20.91;69.32
14154;DHT22;7157;53.144;7.570;2023-08-06T17:51:25;20.78;69.20
14154;DHT22;7157;53.144;7.570;2023-08-06T18:01:27;20.47;71.58
14154;DHT22;7157;53.144;7.570;2023-08-06T18:11:32;20.25;73.34
14154;DHT22;7157;53.144;7.570;2023-08-06T18:21:35;19.97;75.57
14154;DHT22;7157;53.144;7.570;2023-08-06T18:31:41;19.94;77.06
14154;DHT22;7157;53.144;7.570;2023-08-06T18:41:44;19.86;77.86
14154;DHT22;7157;53.144;7.570;2023-08-06T18:51:49;19.72;78.33
14154;DHT22;7157;53.144;7.570;2023-08-06T19:01:52;19.44;79.87
14154;DHT22;7157;53.144;7.570;2023-08-06T19:22:28;19.01;81.36
14154;DHT22;7157;53.144;7.570;2023-08-06T19:32:31;18.76;83.78
14154;DHT22;7157;53.144;7.570;2023-08-06T19:42:36;18.63;84.68
14154;DHT22;7157;53.144;7.570;2023-08-06T19:52:39;18.39;86.57
14154;DHT22;7157;53.144;7.570;2023-08-06T20:02:44;18.26;87.85
14154;DHT22;7157;53.144;7.570;2023-08-06T20:12:47;18.14;88.11
14154;DHT22;7157;53.144;7.570;2023-08-06T20:22:52;18.04;88.67
14154;DHT22;7157;53.144;7.570;2023-08-06T20:32:57;18.10;88.89
14154;DHT22;7157;53.144;7.570;2023-08-06T20:43:01;17.92;89.68
14154;DHT22;7157;53.144;7.570;2023-08-06T20:53:04;17.90;89.68
14154;DHT22;7157;53.144;7.570;2023-08-06T21:03:09;17.79;90.17
14154;DHT22;7157;53.144;7.570;2023-08-06T21:13:11;17.74;90.08
14154;DHT22;7157;53.144;7.570;2023-08-06T21:23:16;17.55;90.79
14154;DHT22;7157;53.144;7.570;2023-08-06T21:33:19;17.45;91.05
14154;DHT22;7157;53.144;7.570;2023-08-06T21:43:39;17.41;91.77
14154;DHT22;7157;53.144;7.570;2023-08-06T21:53:52;17.30;91.98
14154;DHT22;7157;53.144;7.570;2023-08-06T22:04:18;17.10;93.72
14154;DHT22;7157;53.144;7.570;2023-08-06T22:14:25;17.01;94.28
14154;DHT22;7157;53.144;7.570;2023-08-06T22:25:11;17.01;94.59
14154;DHT22;7157;53.144;7.570;2023-08-06T22:35:22;16.91;94.75
14154;DHT22;7157;53.144;7.570;2023-08-06T22:45:26;16.89;94.95
14154;DHT22;7157;53.144;7.570;2023-08-06T22:55:29;16.80;95.49
14154;DHT22;7157;53.144;7.570;2023-08-06T23:05:37;16.74;96.52
14154;DHT22;7157;53.144;7.570;2023-08-06T23:15:40;15.76;104.06
14154;DHT22;7157;53.144;7.570;2023-08-06T23:25:45;15.77;105.85
14154;DHT22;7157;53.144;7.570;2023-08-06T23:35:48;15.81;107.30
14154;DHT22;7157;53.144;7.570;2023-08-06T23:45:52;15.76;108.15
14154;DHT22;7157;53.144;7.570;2023-08-06T23:55:57;15.72;108.65
